createdAt,value
2022-09-27T00:01:24.379Z,86.97
2022-09-27T00:04:27.470Z,87.45
2022-09-27T00:07:30.187Z,86.62
2022-09-27T00:10:34.166Z,86.61
2022-09-27T00:13:36.798Z,86.49
2022-09-27T00:16:40.436Z,86.69
2022-09-27T00:19:43.055Z,87.20
2022-09-27T00:22:45.684Z,87.27
2022-09-27T00:25:57.579Z,87.27
2022-09-27T00:29:00.373Z,87.61
2022-09-27T00:32:03.080Z,87.84
2022-09-27T00:35:06.464Z,88.05
2022-09-27T00:38:09.053Z,88.60
2022-09-27T00:41:17.160Z,88.46
2022-09-27T00:45:03.420Z,88.58
2022-09-27T00:48:06.993Z,87.55
2022-09-27T00:51:09.944Z,88.93
2022-09-27T00:54:14.704Z,87.83
2022-09-27T00:57:19.070Z,88.21
2022-09-27T01:00:22.766Z,87.73
2022-09-27T01:03:27.388Z,88.59
2022-09-27T01:06:30.140Z,87.91
2022-09-27T01:09:33.088Z,86.86
2022-09-27T01:12:46.066Z,87.98
2022-09-27T01:15:55.301Z,87.96
2022-09-27T01:19:08.383Z,86.97
2022-09-27T01:22:14.158Z,87.06
2022-09-27T01:25:34.772Z,87.34
2022-09-27T01:28:48.404Z,86.91
2022-09-27T01:31:57.282Z,87.84
2022-09-27T01:35:04.504Z,86.57
2022-09-27T01:38:13.973Z,86.67
2022-09-27T01:41:23.117Z,86.30
2022-09-27T01:44:29.611Z,86.92
2022-09-27T01:47:39.426Z,85.81
2022-09-27T01:50:45.986Z,85.28
2022-09-27T01:53:49.982Z,85.01
2022-09-27T01:56:56.108Z,85.66
2022-09-27T02:00:01.430Z,84.86
2022-09-27T02:03:08.659Z,85.15
2022-09-27T02:06:14.027Z,84.54
2022-09-27T02:09:19.167Z,84.56
2022-09-27T02:12:23.761Z,84.76
2022-09-27T02:15:27.707Z,84.97
2022-09-27T02:18:35.843Z,85.77
2022-09-27T02:21:43.959Z,87.22
2022-09-27T02:24:49.870Z,88.37
2022-09-27T02:27:58.281Z,88.91
2022-09-27T02:31:00.964Z,89.97
2022-09-27T02:34:07.569Z,90.40
2022-09-27T02:37:10.222Z,91.18
2022-09-27T02:40:13.824Z,90.59
2022-09-27T02:43:17.379Z,88.17
2022-09-27T02:46:32.405Z,87.27
2022-09-27T02:49:46.414Z,88.63
2022-09-27T02:52:51.235Z,87.26
2022-09-27T02:55:59.433Z,87.50
2022-09-27T02:59:08.689Z,88.44
2022-09-27T03:02:15.115Z,88.08
2022-09-27T03:05:22.505Z,87.02
2022-09-27T03:08:25.312Z,86.99
2022-09-27T03:11:28.116Z,87.66
2022-09-27T03:14:30.654Z,87.94
2022-09-27T03:17:33.278Z,87.31
2022-09-27T03:20:37.172Z,85.10
2022-09-27T03:23:39.971Z,85.61
2022-09-27T03:26:42.644Z,85.35
2022-09-27T03:29:45.285Z,85.05
2022-09-27T03:32:47.898Z,85.13
2022-09-27T03:35:51.810Z,84.40
2022-09-27T03:38:54.524Z,84.64
2022-09-27T03:41:57.421Z,85.27
2022-09-27T03:44:59.960Z,84.94
2022-09-27T03:48:02.982Z,85.64
2022-09-27T03:51:07.342Z,84.47
2022-09-27T03:54:10.047Z,84.25
2022-09-27T03:57:12.917Z,83.93
2022-09-27T04:00:16.011Z,83.18
2022-09-27T04:03:19.867Z,84.02
2022-09-27T04:06:23.979Z,82.86
2022-09-27T04:09:26.718Z,83.87
2022-09-27T04:12:30.362Z,83.76
2022-09-27T04:15:33.000Z,83.95
2022-09-27T04:18:35.646Z,83.27
2022-09-27T04:21:39.630Z,84.15
2022-09-27T04:24:42.246Z,83.73
2022-09-27T04:27:46.496Z,83.07
2022-09-27T04:30:49.272Z,82.96
2022-09-27T04:33:52.002Z,82.55
2022-09-27T04:36:55.152Z,83.59
2022-09-27T04:39:57.816Z,82.89
2022-09-27T04:43:00.535Z,83.93
2022-09-27T04:46:03.163Z,83.81
2022-09-27T04:49:05.813Z,84.25
2022-09-27T04:52:09.812Z,83.60
2022-09-27T04:55:12.623Z,82.11
2022-09-27T04:58:15.281Z,81.60
2022-09-27T05:01:18.047Z,81.71
2022-09-27T05:04:21.809Z,82.62
2022-09-27T05:07:25.556Z,83.23
2022-09-27T05:10:28.132Z,84.73
2022-09-27T05:13:30.637Z,83.36
2022-09-27T05:16:34.499Z,84.46
2022-09-27T05:19:38.518Z,85.41
2022-09-27T05:22:42.499Z,87.00
2022-09-27T05:25:45.404Z,86.86
2022-09-27T05:28:48.020Z,87.45
2022-09-27T05:31:50.935Z,86.42
2022-09-27T05:34:54.257Z,87.09
2022-09-27T05:38:00.033Z,87.63
2022-09-27T05:41:03.467Z,85.99
2022-09-27T05:44:06.242Z,86.02
2022-09-27T05:47:09.352Z,86.85
2022-09-27T05:50:12.030Z,86.22
2022-09-27T05:53:16.020Z,85.97
2022-09-27T05:56:18.898Z,85.73
2022-09-27T05:59:21.478Z,85.14
2022-09-27T06:02:24.202Z,85.55
2022-09-27T06:05:29.293Z,83.89
2022-09-27T06:08:34.269Z,84.03
2022-09-27T06:11:37.151Z,82.82
2022-09-27T06:14:40.468Z,84.88
2022-09-27T06:17:43.025Z,83.86
2022-09-27T06:20:46.244Z,84.20
2022-09-27T06:23:54.098Z,82.83
2022-09-27T06:26:57.153Z,82.21
2022-09-27T06:30:00.083Z,82.60
2022-09-27T06:33:03.973Z,81.01
2022-09-27T06:36:08.042Z,79.73
2022-09-27T06:39:12.142Z,78.61
2022-09-27T06:42:14.714Z,77.43
2022-09-27T06:45:17.756Z,75.89
2022-09-27T06:48:20.498Z,75.92
2022-09-27T06:51:23.228Z,75.92
2022-09-27T06:54:27.162Z,76.46
2022-09-27T06:57:47.237Z,77.81
2022-09-27T07:00:50.624Z,77.70
2022-09-27T07:03:53.241Z,77.58
2022-09-27T07:06:55.852Z,75.89
2022-09-27T07:09:59.919Z,75.76
2022-09-27T07:13:05.375Z,74.38
2022-09-27T07:16:08.479Z,73.89
2022-09-27T07:19:13.523Z,75.83
2022-09-27T07:22:16.263Z,77.06
2022-09-27T07:25:20.311Z,76.93
2022-09-27T07:28:23.019Z,75.18
2022-09-27T07:31:26.429Z,74.95
2022-09-27T07:34:29.132Z,78.00
2022-09-27T07:37:33.166Z,77.37
2022-09-27T07:40:38.056Z,78.58
2022-09-27T07:43:41.152Z,78.04
2022-09-27T07:46:43.789Z,78.06
2022-09-27T07:49:46.552Z,75.62
2022-09-27T07:52:51.050Z,74.84
2022-09-27T07:55:55.448Z,72.98
2022-09-27T07:58:58.505Z,73.65
2022-09-27T08:02:02.238Z,71.30
2022-09-27T08:05:05.248Z,71.29
2022-09-27T08:08:08.095Z,69.06
2022-09-27T08:11:16.758Z,65.93
2022-09-27T08:14:19.451Z,66.80
2022-09-27T08:17:22.046Z,67.14
2022-09-27T08:20:24.851Z,67.94
2022-09-27T08:23:27.463Z,68.77
2022-09-27T08:26:31.467Z,69.26
2022-09-27T08:29:34.119Z,69.03
2022-09-27T08:32:37.844Z,67.78
2022-09-27T08:35:40.398Z,64.86
2022-09-27T08:38:43.057Z,64.17
2022-09-27T08:41:50.488Z,61.00
2022-09-27T08:45:00.964Z,60.30
2022-09-27T08:48:06.233Z,61.28
2022-09-27T08:51:12.986Z,60.41
2022-09-27T08:54:19.051Z,61.21
2022-09-27T08:57:25.158Z,60.16
2022-09-27T09:00:29.797Z,59.55
2022-09-27T09:03:35.247Z,60.12
2022-09-27T09:06:42.159Z,62.45
2022-09-27T09:09:49.909Z,61.91
2022-09-27T09:12:59.002Z,62.63
2022-09-27T09:16:06.718Z,61.84
2022-09-27T09:19:21.335Z,62.70
2022-09-27T09:22:36.679Z,62.09
2022-09-27T09:25:45.231Z,60.56
2022-09-27T09:29:00.592Z,59.17
2022-09-27T09:32:10.450Z,59.34
2022-09-27T09:35:15.423Z,59.59
2022-09-27T09:38:22.628Z,57.90
2022-09-27T09:41:29.637Z,58.78
2022-09-27T09:44:38.830Z,58.00
2022-09-27T09:47:44.840Z,58.57
2022-09-27T09:50:49.516Z,56.34
2022-09-27T09:53:55.518Z,56.87
2022-09-27T09:57:03.413Z,54.01
2022-09-27T10:00:14.750Z,53.53
2022-09-27T10:03:17.547Z,53.48
2022-09-27T10:06:20.414Z,52.49
2022-09-27T10:09:26.492Z,52.40
2022-09-27T10:12:29.702Z,52.12
2022-09-27T10:15:34.393Z,49.99
2022-09-27T10:18:38.486Z,45.19
2022-09-27T10:21:45.166Z,47.05
2022-09-27T10:24:56.136Z,46.55
2022-09-27T10:28:00.179Z,47.70
2022-09-27T10:31:06.138Z,49.88
2022-09-27T10:34:18.954Z,51.80
2022-09-27T10:37:23.950Z,52.58
2022-09-27T10:40:29.976Z,52.38
2022-09-27T10:43:35.348Z,51.35
2022-09-27T10:46:39.370Z,49.59
2022-09-27T10:49:42.707Z,48.39
2022-09-27T10:52:45.446Z,46.02
2022-09-27T10:55:49.412Z,47.24
2022-09-27T10:58:52.192Z,47.87
2022-09-27T11:01:56.277Z,46.25
2022-09-27T11:05:13.934Z,45.54
2022-09-27T11:08:24.397Z,48.44
2022-09-27T11:11:29.819Z,47.88
2022-09-27T11:14:33.170Z,48.20
2022-09-27T11:17:44.276Z,47.39
2022-09-27T11:20:49.688Z,47.11
2022-09-27T11:24:13.316Z,47.27
2022-09-27T11:27:24.198Z,45.46
2022-09-27T11:30:33.597Z,44.34
2022-09-27T11:33:46.215Z,43.98
2022-09-27T11:36:59.314Z,44.73
2022-09-27T11:40:10.192Z,44.10
2022-09-27T11:43:50.869Z,46.10
2022-09-27T11:46:58.323Z,47.46
2022-09-27T11:50:15.712Z,45.72
2022-09-27T11:53:29.759Z,45.37
2022-09-27T11:56:39.644Z,45.39
2022-09-27T11:59:57.895Z,46.58
2022-09-27T12:03:16.438Z,49.86
2022-09-27T12:06:24.238Z,51.90
2022-09-27T12:09:30.657Z,53.15
2022-09-27T12:12:34.545Z,58.57
2022-09-27T12:15:41.409Z,58.96
2022-09-27T12:18:47.992Z,59.51
2022-09-27T12:21:56.293Z,64.85
2022-09-27T12:24:58.969Z,70.43
2022-09-27T12:28:05.812Z,74.17
2022-09-27T12:31:30.510Z,78.97
2022-09-27T12:34:39.115Z,79.21
2022-09-27T12:37:45.817Z,75.99
2022-09-27T12:40:51.261Z,74.29
2022-09-27T12:43:53.988Z,72.10
2022-09-27T12:47:02.816Z,69.12
2022-09-27T12:50:12.476Z,67.11
2022-09-27T12:53:23.332Z,64.60
2022-09-27T12:56:36.354Z,62.99
2022-09-27T12:59:48.169Z,57.99
2022-09-27T13:03:26.256Z,50.97
2022-09-27T13:06:42.276Z,40.25
2022-09-27T13:09:57.235Z,44.79
2022-09-27T13:13:01.319Z,48.92
2022-09-27T13:16:04.481Z,53.51
2022-09-27T13:19:07.127Z,56.41
2022-09-27T13:22:11.306Z,60.01
2022-09-27T13:25:55.379Z,61.66
2022-09-27T13:29:07.022Z,64.11
2022-09-27T13:32:18.412Z,67.05
2022-09-27T13:35:23.250Z,70.85
2022-09-27T13:38:25.859Z,73.44
2022-09-27T13:41:33.575Z,74.13
2022-09-27T13:44:43.068Z,73.93
2022-09-27T13:47:47.718Z,72.02
2022-09-27T13:50:56.461Z,71.74
2022-09-27T13:54:00.848Z,71.17
2022-09-27T13:57:25.951Z,72.15
2022-09-27T14:00:31.874Z,70.53
2022-09-27T14:03:37.890Z,70.33
2022-09-27T14:06:45.283Z,72.77
2022-09-27T14:09:49.609Z,74.34
2022-09-27T14:12:53.986Z,83.48
2022-09-27T14:15:57.316Z,85.61
2022-09-27T14:19:00.934Z,88.06
2022-09-27T14:22:03.490Z,87.39
2022-09-27T14:25:18.039Z,86.00
2022-09-27T14:28:24.277Z,87.30
2022-09-27T14:31:27.971Z,85.69
2022-09-27T14:34:30.555Z,85.82
2022-09-27T14:37:33.205Z,84.16
2022-09-27T14:40:40.131Z,72.88
2022-09-27T14:43:45.891Z,72.56
2022-09-27T14:46:49.666Z,72.89
2022-09-27T14:49:53.644Z,74.16
2022-09-27T14:52:59.444Z,74.98
2022-09-27T14:56:02.998Z,74.82
2022-09-27T14:59:09.291Z,74.78
2022-09-27T15:02:20.147Z,72.36
2022-09-27T15:05:24.873Z,39.19
2022-09-27T15:08:30.262Z,31.58
2022-09-27T15:11:33.611Z,39.23
2022-09-27T15:14:41.102Z,49.80
2022-09-27T15:17:44.818Z,57.71
2022-09-27T15:20:54.517Z,61.57
2022-09-27T15:23:58.777Z,65.98
2022-09-27T15:27:01.341Z,67.10
2022-09-27T15:30:06.392Z,68.09
2022-09-27T15:33:20.534Z,69.02
2022-09-27T15:36:52.164Z,70.42
2022-09-27T15:39:54.965Z,70.94
2022-09-27T15:42:59.399Z,70.87
2022-09-27T15:46:05.512Z,69.57
2022-09-27T15:49:33.543Z,69.87
2022-09-27T15:52:43.459Z,68.84
2022-09-27T15:55:46.140Z,62.93
2022-09-27T15:58:48.662Z,63.42
2022-09-27T16:01:56.375Z,63.62
2022-09-27T16:04:59.210Z,61.95
2022-09-27T16:08:02.453Z,64.28
2022-09-27T16:11:05.734Z,61.84
2022-09-27T16:14:08.366Z,63.09
2022-09-27T16:17:12.356Z,61.38
2022-09-27T16:20:19.486Z,63.63
2022-09-27T16:23:22.060Z,62.55
2022-09-27T16:26:24.571Z,64.94
2022-09-27T16:29:27.441Z,64.60
2022-09-27T16:32:31.310Z,65.63
2022-09-27T16:35:33.948Z,63.28
2022-09-27T16:38:36.551Z,64.69
2022-09-27T16:41:41.104Z,63.45
2022-09-27T16:44:43.901Z,63.26
2022-09-27T16:47:48.044Z,62.32
2022-09-27T16:51:08.454Z,62.14
2022-09-27T16:54:11.210Z,63.04
2022-09-27T16:57:14.181Z,62.81
2022-09-27T17:00:17.405Z,63.91
2022-09-27T17:03:21.551Z,64.22
2022-09-27T17:06:24.467Z,64.26
2022-09-27T17:09:27.317Z,66.34
2022-09-27T17:12:29.958Z,65.57
2022-09-27T17:15:32.607Z,67.16
2022-09-27T17:18:36.617Z,65.69
2022-09-27T17:21:39.624Z,64.40
2022-09-27T17:24:42.310Z,64.08
2022-09-27T17:27:45.026Z,65.18
2022-09-27T17:30:47.797Z,65.05
2022-09-27T17:33:57.429Z,64.25
2022-09-27T17:37:01.550Z,64.33
2022-09-27T17:40:04.567Z,64.79
2022-09-27T17:43:07.320Z,65.16
2022-09-27T17:46:11.293Z,65.06
2022-09-27T17:49:33.271Z,64.66
2022-09-27T17:52:36.040Z,64.94
2022-09-27T17:55:38.799Z,65.46
2022-09-27T17:58:41.655Z,66.48
2022-09-27T18:01:45.394Z,66.29
2022-09-27T18:04:49.464Z,67.15
2022-09-27T18:07:52.109Z,68.96
2022-09-27T18:10:55.176Z,70.91
2022-09-27T18:14:00.498Z,72.83
2022-09-27T18:17:03.074Z,73.54
2022-09-27T18:20:07.902Z,74.02
2022-09-27T18:23:10.755Z,73.50
2022-09-27T18:26:13.297Z,74.27
2022-09-27T18:29:18.161Z,74.34
2022-09-27T18:32:20.809Z,72.60
2022-09-27T18:35:24.843Z,73.45
2022-09-27T18:38:27.524Z,73.73
2022-09-27T18:41:32.063Z,72.76
2022-09-27T18:44:34.974Z,72.98
2022-09-27T18:47:37.568Z,73.23
2022-09-27T18:50:41.587Z,73.01
2022-09-27T18:53:44.898Z,73.18
2022-09-27T18:56:48.488Z,73.44
2022-09-27T18:59:51.921Z,73.35
2022-09-27T19:02:54.651Z,73.95
2022-09-27T19:05:59.689Z,74.22
2022-09-27T19:09:03.740Z,74.49
2022-09-27T19:12:06.506Z,74.60
2022-09-27T19:15:10.683Z,75.17
2022-09-27T19:18:13.477Z,74.33
2022-09-27T19:21:18.771Z,75.09
2022-09-27T19:24:21.922Z,74.97
2022-09-27T19:27:24.449Z,74.87
2022-09-27T19:30:27.309Z,74.75
2022-09-27T19:33:30.083Z,74.46
2022-09-27T19:36:34.248Z,75.86
2022-09-27T19:39:36.777Z,76.47
2022-09-27T19:42:39.434Z,76.13
2022-09-27T19:45:42.170Z,77.45
2022-09-27T19:48:46.188Z,77.99
2022-09-27T19:51:52.060Z,78.68
2022-09-27T19:54:54.759Z,79.13
2022-09-27T19:57:58.021Z,78.88
2022-09-27T20:01:02.608Z,79.83
2022-09-27T20:04:05.741Z,80.33
2022-09-27T20:07:09.814Z,79.41
2022-09-27T20:10:12.823Z,79.09
2022-09-27T20:13:15.384Z,77.83
2022-09-27T20:16:19.504Z,77.86
2022-09-27T20:19:22.658Z,78.30
2022-09-27T20:22:26.525Z,78.03
2022-09-27T20:25:29.643Z,79.15
2022-09-27T20:28:32.342Z,79.31
2022-09-27T20:31:37.911Z,79.08
2022-09-27T20:34:41.199Z,79.32
2022-09-27T20:37:45.170Z,79.38
2022-09-27T20:40:54.160Z,80.46
2022-09-27T20:43:58.346Z,79.95
2022-09-27T20:47:00.938Z,80.33
2022-09-27T20:50:04.238Z,79.22
2022-09-27T20:53:08.310Z,78.82
2022-09-27T20:56:17.449Z,78.70
2022-09-27T20:59:21.846Z,79.80
2022-09-27T21:02:24.858Z,79.80
2022-09-27T21:05:27.514Z,79.74
2022-09-27T21:08:33.119Z,79.56
2022-09-27T21:11:36.052Z,80.51
2022-09-27T21:14:38.819Z,80.27
2022-09-27T21:17:41.430Z,81.24
2022-09-27T21:20:44.722Z,81.10
2022-09-27T21:23:49.289Z,81.14
2022-09-27T21:26:53.276Z,81.11
2022-09-27T21:29:55.754Z,80.61
2022-09-27T21:32:58.825Z,80.41
2022-09-27T21:36:02.126Z,80.38
2022-09-27T21:39:08.342Z,80.67
2022-09-27T21:42:10.924Z,80.52
2022-09-27T21:45:13.510Z,79.94
2022-09-27T21:48:16.244Z,79.49
2022-09-27T21:51:20.935Z,79.93
2022-09-27T21:54:24.958Z,79.68
2022-09-27T21:57:27.691Z,80.05
2022-09-27T22:00:30.389Z,80.55
2022-09-27T22:03:35.205Z,81.04
2022-09-27T22:06:39.288Z,82.84
2022-09-27T22:09:43.192Z,84.34
2022-09-27T22:12:45.754Z,85.03
2022-09-27T22:15:50.312Z,85.79
2022-09-27T22:18:54.784Z,85.59
2022-09-27T22:21:57.318Z,85.72
2022-09-27T22:25:01.432Z,86.82
2022-09-27T22:28:04.389Z,86.31
2022-09-27T22:31:08.212Z,86.41
2022-09-27T22:34:17.115Z,86.43
2022-09-27T22:37:19.978Z,86.88
2022-09-27T22:40:23.999Z,86.86
2022-09-27T22:43:27.242Z,87.25
2022-09-27T22:46:30.049Z,87.01
2022-09-27T22:49:32.608Z,87.05
2022-09-27T22:52:35.716Z,87.69
2022-09-27T22:55:39.631Z,87.55
2022-09-27T22:58:43.942Z,87.60
2022-09-27T23:01:46.630Z,87.80
2022-09-27T23:04:49.869Z,87.79
2022-09-27T23:07:53.401Z,87.50
2022-09-27T23:11:03.965Z,86.93
2022-09-27T23:14:06.979Z,86.56
2022-09-27T23:17:09.575Z,86.80
2022-09-27T23:20:13.490Z,87.86
2022-09-27T23:23:16.176Z,87.57
2022-09-27T23:26:24.083Z,88.26
2022-09-27T23:29:26.783Z,88.33
2022-09-27T23:32:31.786Z,88.08
2022-09-27T23:35:34.941Z,88.60
2022-09-27T23:38:40.241Z,88.82
2022-09-27T23:41:44.246Z,87.72
2022-09-27T23:44:46.762Z,87.53
2022-09-27T23:47:49.533Z,86.98
2022-09-27T23:50:53.076Z,86.92
2022-09-27T23:53:57.281Z,86.28
2022-09-27T23:57:01.443Z,86.43
